»·PEaware :: N7375Q KBOK-KCVO

N7375Q :: KBOK-KCVO

FLIGHT INFORMATION

Flight Status: Arrived
Operator: Privately registered:
United States
More flights under this callsign
Pilot: Ion I. (24133)
Aircraft: SOCATA TBM-900
(TBM9)
More flights by this aircraft type
Origin: KBOK Brookings State
United States
Destination: KCVO Corvallis Mun
United States
More flights between these airports :: More routes between these airports
Route: ROOTY V27 OTH V121 EUG
File this flight plan on PilotEdge
Remarks:
Altitude:
(Current/Filed)
25,000ft
Speed:
(Current/Filed)
300kts
Departed: 10-Aug-20 10:52 AM
Arrived: 10-Aug-20 11:37 AM
Distance/Time
Traveled:
152nm/0:45
Distance/Time
To Go:
Arrived

Flight Plot

Page will automatically refresh every two minutes.

Flight plan parsing failed; only flown route is shown


Map Options




Map Legend


Flown Route
Filed Route
Departure Airport
Arrival Airport
Navaid (VOR, NDB)
Fix

Horizontal Profiles

Position Reports

Time Latitude Longitude Heading Altitude Ground
Speed
10-Aug-20 10:39 42.074505 -124.289478 325 461ft 0kts
10-Aug-20 10:40 42.074505 -124.289478 325 461ft 0kts
10-Aug-20 10:41 42.074505 -124.289478 325 461ft 0kts
10-Aug-20 10:42 42.074505 -124.289478 325 461ft 0kts
10-Aug-20 10:43 42.074505 -124.289478 325 461ft 0kts
10-Aug-20 10:44 42.074505 -124.289478 325 461ft 0kts
10-Aug-20 10:45 42.074505 -124.289478 325 461ft 0kts
10-Aug-20 10:46 42.074505 -124.289478 325 461ft 0kts
10-Aug-20 10:47 42.074164 -124.289385 143 461ft 5kts
10-Aug-20 10:48 42.072272 -124.287492 143 461ft 10kts
10-Aug-20 10:49 42.071063 -124.286299 154 461ft 0kts
10-Aug-20 10:50 42.070955 -124.286272 189 461ft 3kts
10-Aug-20 10:51 42.077928 -124.293776 324 660ft 102kts
10-Aug-20 10:52 42.106599 -124.306144 355 2679ft 118kts
10-Aug-20 10:53 42.139546 -124.307555 13 4883ft 131kts
10-Aug-20 10:54 42.179428 -124.295936 13 7009ft 162kts
10-Aug-20 10:55 42.224226 -124.282932 12 9225ft 167kts
10-Aug-20 10:56 42.269392 -124.269762 11 11678ft 169kts
10-Aug-20 10:57 42.317634 -124.255756 10 13720ft 184kts
10-Aug-20 10:58 42.367679 -124.241172 10 15718ft 187kts
10-Aug-20 10:59 42.418622 -124.226262 10 17713ft 188kts
10-Aug-20 11:00 42.471337 -124.210924 6 19742ft 199kts
10-Aug-20 11:01 42.526688 -124.208190 359 21749ft 202kts
10-Aug-20 11:02 42.584020 -124.205669 359 23768ft 210kts
10-Aug-20 11:03 42.644197 -124.203063 359 25052ft 239kts
10-Aug-20 11:04 42.717529 -124.199859 359 25038ft 280kts
10-Aug-20 11:06 42.797310 -124.196313 359 25028ft 292kts
10-Aug-20 11:07 42.879568 -124.192651 359 24625ft 306kts
10-Aug-20 11:08 42.965621 -124.188809 359 23625ft 307kts
10-Aug-20 11:09 43.051440 -124.184978 359 21928ft 316kts
10-Aug-20 11:10 43.140127 -124.181000 0 19924ft 320kts
10-Aug-20 11:11 43.228976 -124.176985 0 17920ft 319kts
10-Aug-20 11:12 43.317339 -124.172990 0 15914ft 316kts
10-Aug-20 11:13 43.402099 -124.169077 1 14996ft 286kts
10-Aug-20 11:14 43.462947 -124.105875 41 15002ft 274kts
10-Aug-20 11:15 43.517631 -124.033604 41 15002ft 271kts
10-Aug-20 11:16 43.572030 -123.961468 41 15000ft 271kts
10-Aug-20 11:17 43.626384 -123.889223 41 14997ft 271kts
10-Aug-20 11:18 43.680620 -123.816918 41 14994ft 271kts
10-Aug-20 11:19 43.735027 -123.744199 41 15000ft 271kts
10-Aug-20 11:20 43.790227 -123.670252 41 14121ft 292kts
10-Aug-20 11:21 43.849708 -123.590321 42 12126ft 299kts
10-Aug-20 11:22 43.908607 -123.510912 42 10124ft 288kts
10-Aug-20 11:22 43.955107 -123.448044 43 8437ft 272kts
10-Aug-20 11:24 44.016687 -123.364559 42 6096ft 259kts
10-Aug-20 11:25 44.064957 -123.299028 42 6010ft 233kts
10-Aug-20 11:25 44.102185 -123.248338 42 6009ft 231kts
10-Aug-20 11:26 44.160573 -123.244667 340 4953ft 234kts
10-Aug-20 11:28 44.225829 -123.280927 340 3698ft 192kts
10-Aug-20 11:28 44.267787 -123.304191 340 3717ft 198kts
10-Aug-20 11:29 44.318970 -123.322643 8 3706ft 175kts
10-Aug-20 11:30 44.365829 -123.314499 7 2572ft 151kts
10-Aug-20 11:31 44.397142 -123.309121 8 2076ft 104kts
10-Aug-20 11:32 44.424863 -123.304448 10 1487ft 92kts
10-Aug-20 11:33 44.448531 -123.300548 12 1017ft 82kts
10-Aug-20 11:34 44.464038 -123.297766 12 731ft 83kts
10-Aug-20 11:35 44.486597 -123.293890 9 273ft 77kts
10-Aug-20 11:36 44.494174 -123.291452 95 246ft 8kts
10-Aug-20 11:37 44.497145 -123.290621 7 246ft 16kts
10-Aug-20 11:38 44.502481 -123.289271 21 243ft 13kts
10-Aug-20 11:39 44.503202 -123.286060 280 243ft 8kts
10-Aug-20 11:40 44.503133 -123.286363 200 243ft 0kts
10-Aug-20 11:41 44.503133 -123.286363 200 243ft 0kts
10-Aug-20 11:42 44.503133 -123.286363 200 243ft 0kts
10-Aug-20 11:43 44.503133 -123.286363 200 243ft 0kts
10-Aug-20 11:44 44.503133 -123.286363 200 242ft 0kts

Navigation Log

Ident Type
Flight plan parsing failed, navigation log unavailable